sensor_id;sensor_type;location;lat;lon;timestamp;pressure;altitude;pressure_sealevel;temperature;humidity
57232;BME280;43488;46.934;8.276;2022-12-18T00:01:39;97362.75;;;-0.62;85.46
57232;BME280;43488;46.934;8.276;2022-12-18T00:04:12;97366.38;;;-0.64;85.33
57232;BME280;43488;46.934;8.276;2022-12-18T00:06:42;97372.75;;;-0.68;85.65
57232;BME280;43488;46.934;8.276;2022-12-18T00:09:09;97382.84;;;-0.65;86.52
57232;BME280;43488;46.934;8.276;2022-12-18T00:11:37;97384.59;;;-0.66;86.85
57232;BME280;43488;46.934;8.276;2022-12-18T00:14:04;97389.44;;;-0.61;87.14
57232;BME280;43488;46.934;8.276;2022-12-18T00:16:32;97391.44;;;-0.65;86.83
57232;BME280;43488;46.934;8.276;2022-12-18T00:19:02;97388.00;;;-0.65;86.74
57232;BME280;43488;46.934;8.276;2022-12-18T00:21:31;97389.78;;;-0.66;87.28
57232;BME280;43488;46.934;8.276;2022-12-18T00:24:00;97395.06;;;-0.67;87.80
57232;BME280;43488;46.934;8.276;2022-12-18T00:26:33;97391.22;;;-0.73;88.16
57232;BME280;43488;46.934;8.276;2022-12-18T00:29:12;97394.50;;;-0.71;88.42
57232;BME280;43488;46.934;8.276;2022-12-18T00:31:43;97399.28;;;-0.77;88.15
57232;BME280;43488;46.934;8.276;2022-12-18T00:34:13;97401.75;;;-0.76;88.50
57232;BME280;43488;46.934;8.276;2022-12-18T00:36:41;97410.69;;;-0.80;88.46
57232;BME280;43488;46.934;8.276;2022-12-18T00:39:10;97413.28;;;-0.80;88.04
57232;BME280;43488;46.934;8.276;2022-12-18T00:41:38;97411.53;;;-0.79;88.27
57232;BME280;43488;46.934;8.276;2022-12-18T00:44:24;97419.03;;;-0.76;88.77
57232;BME280;43488;46.934;8.276;2022-12-18T00:46:51;97415.50;;;-0.75;89.53
57232;BME280;43488;46.934;8.276;2022-12-18T00:49:19;97423.16;;;-0.74;89.25
57232;BME280;43488;46.934;8.276;2022-12-18T00:51:48;97421.28;;;-0.72;89.51
57232;BME280;43488;46.934;8.276;2022-12-18T00:54:16;97425.72;;;-0.74;88.95
57232;BME280;43488;46.934;8.276;2022-12-18T00:56:44;97425.03;;;-0.76;89.60
57232;BME280;43488;46.934;8.276;2022-12-18T00:59:12;97412.47;;;-0.80;89.12
57232;BME280;43488;46.934;8.276;2022-12-18T01:01:39;97417.75;;;-0.82;89.16
57232;BME280;43488;46.934;8.276;2022-12-18T01:04:06;97405.72;;;-0.83;89.52
57232;BME280;43488;46.934;8.276;2022-12-18T01:06:34;97404.81;;;-0.82;89.88
57232;BME280;43488;46.934;8.276;2022-12-18T01:09:01;97401.50;;;-0.84;90.08
57232;BME280;43488;46.934;8.276;2022-12-18T01:11:32;97411.03;;;-0.84;89.98
57232;BME280;43488;46.934;8.276;2022-12-18T01:13:59;97412.19;;;-0.89;89.89
57232;BME280;43488;46.934;8.276;2022-12-18T01:16:27;97413.97;;;-0.89;90.48
57232;BME280;43488;46.934;8.276;2022-12-18T01:18:55;97415.13;;;-0.93;89.99
57232;BME280;43488;46.934;8.276;2022-12-18T01:21:23;97411.50;;;-0.91;90.39
57232;BME280;43488;46.934;8.276;2022-12-18T01:23:55;97410.69;;;-0.91;90.15
57232;BME280;43488;46.934;8.276;2022-12-18T01:26:24;97411.59;;;-0.92;88.99
57232;BME280;43488;46.934;8.276;2022-12-18T01:28:54;97401.97;;;-0.90;89.46
57232;BME280;43488;46.934;8.276;2022-12-18T01:31:25;97407.63;;;-0.85;89.32
57232;BME280;43488;46.934;8.276;2022-12-18T01:33:53;97404.09;;;-0.84;88.54
57232;BME280;43488;46.934;8.276;2022-12-18T01:36:28;97413.41;;;-0.81;87.92
57232;BME280;43488;46.934;8.276;2022-12-18T01:38:56;97407.28;;;-0.80;87.54
57232;BME280;43488;46.934;8.276;2022-12-18T01:41:27;97406.78;;;-0.86;87.91
57232;BME280;43488;46.934;8.276;2022-12-18T01:47:41;97404.47;;;-0.77;88.23
57232;BME280;43488;46.934;8.276;2022-12-18T01:50:18;97418.91;;;-0.75;88.25
57232;BME280;43488;46.934;8.276;2022-12-18T01:52:56;97421.97;;;-0.81;89.08
57232;BME280;43488;46.934;8.276;2022-12-18T01:55:29;97418.66;;;-0.83;88.81
57232;BME280;43488;46.934;8.276;2022-12-18T01:57:59;97413.41;;;-0.81;88.39
57232;BME280;43488;46.934;8.276;2022-12-18T02:00:27;97412.59;;;-0.82;88.29
57232;BME280;43488;46.934;8.276;2022-12-18T02:02:55;97411.63;;;-0.81;87.96
57232;BME280;43488;46.934;8.276;2022-12-18T02:11:46;97418.72;;;-0.72;88.82
57232;BME280;43488;46.934;8.276;2022-12-18T02:17:22;97433.03;;;-0.79;88.85
57232;BME280;43488;46.934;8.276;2022-12-18T02:20:35;97429.47;;;-0.89;88.89
57232;BME280;43488;46.934;8.276;2022-12-18T02:29:00;97447.56;;;-0.89;89.67
57232;BME280;43488;46.934;8.276;2022-12-18T02:31:38;97451.56;;;-0.85;89.46
57232;BME280;43488;46.934;8.276;2022-12-18T02:34:08;97458.50;;;-0.86;89.52
57232;BME280;43488;46.934;8.276;2022-12-18T02:36:41;97454.38;;;-0.88;89.67
57232;BME280;43488;46.934;8.276;2022-12-18T02:39:12;97454.84;;;-0.94;89.11
57232;BME280;43488;46.934;8.276;2022-12-18T02:41:40;97453.31;;;-0.97;88.97
57232;BME280;43488;46.934;8.276;2022-12-18T02:44:12;97454.72;;;-0.93;88.84
57232;BME280;43488;46.934;8.276;2022-12-18T02:46:51;97452.13;;;-0.93;89.17
57232;BME280;43488;46.934;8.276;2022-12-18T02:49:44;97461.44;;;-0.90;89.37
57232;BME280;43488;46.934;8.276;2022-12-18T02:52:35;97460.50;;;-0.89;89.10
57232;BME280;43488;46.934;8.276;2022-12-18T03:01:42;97457.53;;;-0.96;89.04
57232;BME280;43488;46.934;8.276;2022-12-18T03:04:22;97454.25;;;-0.98;88.99
57232;BME280;43488;46.934;8.276;2022-12-18T03:06:59;97465.84;;;-1.03;89.38
57232;BME280;43488;46.934;8.276;2022-12-18T03:09:34;97459.38;;;-1.09;89.06
57232;BME280;43488;46.934;8.276;2022-12-18T03:12:09;97471.91;;;-1.16;89.49
57232;BME280;43488;46.934;8.276;2022-12-18T03:17:34;97477.41;;;-1.20;90.04
57232;BME280;43488;46.934;8.276;2022-12-18T03:20:14;97471.53;;;-1.22;90.03
57232;BME280;43488;46.934;8.276;2022-12-18T03:22:47;97471.53;;;-1.22;90.29
57232;BME280;43488;46.934;8.276;2022-12-18T03:25:17;97472.69;;;-1.26;90.23
57232;BME280;43488;46.934;8.276;2022-12-18T03:27:50;97463.19;;;-1.26;90.33
57232;BME280;43488;46.934;8.276;2022-12-18T03:30:18;97467.41;;;-1.25;90.26
57232;BME280;43488;46.934;8.276;2022-12-18T03:33:06;97472.56;;;-1.25;90.56
57232;BME280;43488;46.934;8.276;2022-12-18T03:35:40;97481.97;;;-1.24;90.85
57232;BME280;43488;46.934;8.276;2022-12-18T03:38:09;97475.28;;;-1.26;90.83
57232;BME280;43488;46.934;8.276;2022-12-18T03:41:04;97482.78;;;-1.23;91.32
57232;BME280;43488;46.934;8.276;2022-12-18T03:43:51;97483.03;;;-1.26;91.36
57232;BME280;43488;46.934;8.276;2022-12-18T03:46:33;97475.28;;;-1.26;90.98
57232;BME280;43488;46.934;8.276;2022-12-18T03:49:21;97492.25;;;-1.35;90.66
57232;BME280;43488;46.934;8.276;2022-12-18T03:52:01;97486.84;;;-1.32;90.70
57232;BME280;43488;46.934;8.276;2022-12-18T03:54:30;97483.13;;;-1.28;90.69
57232;BME280;43488;46.934;8.276;2022-12-18T03:57:06;97486.44;;;-1.26;90.54
57232;BME280;43488;46.934;8.276;2022-12-18T03:59:38;97484.78;;;-1.27;91.15
57232;BME280;43488;46.934;8.276;2022-12-18T04:02:07;97495.13;;;-1.27;90.87
57232;BME280;43488;46.934;8.276;2022-12-18T04:04:38;97497.91;;;-1.30;90.89
57232;BME280;43488;46.934;8.276;2022-12-18T04:07:06;97488.22;;;-1.39;91.14
57232;BME280;43488;46.934;8.276;2022-12-18T04:09:36;97503.59;;;-1.37;91.37
57232;BME280;43488;46.934;8.276;2022-12-18T04:12:05;97507.13;;;-1.38;90.99
57232;BME280;43488;46.934;8.276;2022-12-18T04:14:33;97512.81;;;-1.33;91.26
57232;BME280;43488;46.934;8.276;2022-12-18T04:17:03;97511.03;;;-1.33;91.23
57232;BME280;43488;46.934;8.276;2022-12-18T04:19:30;97516.91;;;-1.31;90.39
57232;BME280;43488;46.934;8.276;2022-12-18T04:21:58;97527.59;;;-1.35;90.09
57232;BME280;43488;46.934;8.276;2022-12-18T04:24:25;97526.53;;;-1.33;90.85
57232;BME280;43488;46.934;8.276;2022-12-18T04:26:53;97535.00;;;-1.31;90.74
57232;BME280;43488;46.934;8.276;2022-12-18T04:29:21;97535.47;;;-1.37;90.91
57232;BME280;43488;46.934;8.276;2022-12-18T04:31:48;97532.88;;;-1.37;90.88
57232;BME280;43488;46.934;8.276;2022-12-18T04:34:15;97531.59;;;-1.31;91.49
57232;BME280;43488;46.934;8.276;2022-12-18T04:36:42;97535.63;;;-1.27;91.79
57232;BME280;43488;46.934;8.276;2022-12-18T04:39:10;97548.09;;;-1.21;90.49
57232;BME280;43488;46.934;8.276;2022-12-18T04:41:37;97542.94;;;-1.21;90.80
57232;BME280;43488;46.934;8.276;2022-12-18T04:44:05;97551.50;;;-1.21;90.39
57232;BME280;43488;46.934;8.276;2022-12-18T04:46:32;97545.50;;;-1.21;90.34
57232;BME280;43488;46.934;8.276;2022-12-18T04:49:00;97544.91;;;-1.25;90.90
57232;BME280;43488;46.934;8.276;2022-12-18T04:51:27;97551.50;;;-1.21;91.24
57232;BME280;43488;46.934;8.276;2022-12-18T04:53:54;97552.56;;;-1.23;91.91
57232;BME280;43488;46.934;8.276;2022-12-18T04:56:22;97555.66;;;-1.18;92.16
57232;BME280;43488;46.934;8.276;2022-12-18T04:58:49;97554.81;;;-1.19;92.11
57232;BME280;43488;46.934;8.276;2022-12-18T05:01:18;97558.25;;;-1.18;92.16
57232;BME280;43488;46.934;8.276;2022-12-18T05:03:45;97561.13;;;-1.23;92.48
57232;BME280;43488;46.934;8.276;2022-12-18T05:06:13;97567.81;;;-1.20;92.65
57232;BME280;43488;46.934;8.276;2022-12-18T05:08:41;97559.59;;;-1.25;92.89
57232;BME280;43488;46.934;8.276;2022-12-18T05:11:13;97556.19;;;-1.26;92.69
57232;BME280;43488;46.934;8.276;2022-12-18T05:13:44;97557.31;;;-1.30;92.59
57232;BME280;43488;46.934;8.276;2022-12-18T05:16:13;97540.16;;;-1.31;92.75
57232;BME280;43488;46.934;8.276;2022-12-18T05:18:41;97544.84;;;-1.36;92.44
57232;BME280;43488;46.934;8.276;2022-12-18T05:21:09;97546.91;;;-1.41;92.82
57232;BME280;43488;46.934;8.276;2022-12-18T05:23:36;97546.44;;;-1.46;92.83
57232;BME280;43488;46.934;8.276;2022-12-18T05:26:06;97546.09;;;-1.41;92.78
57232;BME280;43488;46.934;8.276;2022-12-18T05:28:35;97551.16;;;-1.40;92.73
57232;BME280;43488;46.934;8.276;2022-12-18T05:31:04;97552.09;;;-1.41;93.67
57232;BME280;43488;46.934;8.276;2022-12-18T05:33:34;97548.69;;;-1.41;92.87
57232;BME280;43488;46.934;8.276;2022-12-18T05:36:05;97552.50;;;-1.47;92.98
57232;BME280;43488;46.934;8.276;2022-12-18T05:38:35;97547.56;;;-1.50;92.21
57232;BME280;43488;46.934;8.276;2022-12-18T05:41:03;97544.75;;;-1.47;92.51
57232;BME280;43488;46.934;8.276;2022-12-18T05:43:33;97546.31;;;-1.45;92.51
57232;BME280;43488;46.934;8.276;2022-12-18T05:46:12;97541.47;;;-1.49;92.01
57232;BME280;43488;46.934;8.276;2022-12-18T05:48:41;97543.44;;;-1.53;91.90
57232;BME280;43488;46.934;8.276;2022-12-18T05:51:15;97545.09;;;-1.52;92.04
57232;BME280;43488;46.934;8.276;2022-12-18T05:53:43;97546.34;;;-1.57;92.50
57232;BME280;43488;46.934;8.276;2022-12-18T05:56:18;97547.38;;;-1.60;92.17
57232;BME280;43488;46.934;8.276;2022-12-18T05:58:47;97543.88;;;-1.59;92.41
57232;BME280;43488;46.934;8.276;2022-12-18T06:01:24;97542.81;;;-1.56;92.17
57232;BME280;43488;46.934;8.276;2022-12-18T06:03:52;97534.88;;;-1.53;91.99
57232;BME280;43488;46.934;8.276;2022-12-18T06:06:24;97535.00;;;-1.55;92.50
57232;BME280;43488;46.934;8.276;2022-12-18T06:08:52;97549.66;;;-1.55;92.48
57232;BME280;43488;46.934;8.276;2022-12-18T06:11:23;97539.31;;;-1.55;92.70
57232;BME280;43488;46.934;8.276;2022-12-18T06:13:55;97553.88;;;-1.54;92.61
57232;BME280;43488;46.934;8.276;2022-12-18T06:16:23;97542.63;;;-1.53;93.07
57232;BME280;43488;46.934;8.276;2022-12-18T06:18:51;97547.56;;;-1.50;93.06
57232;BME280;43488;46.934;8.276;2022-12-18T06:21:18;97550.25;;;-1.52;93.50
57232;BME280;43488;46.934;8.276;2022-12-18T06:23:46;97544.28;;;-1.52;94.05
57232;BME280;43488;46.934;8.276;2022-12-18T06:26:15;97555.53;;;-1.53;93.76
57232;BME280;43488;46.934;8.276;2022-12-18T06:28:43;97556.13;;;-1.50;93.66
57232;BME280;43488;46.934;8.276;2022-12-18T06:31:10;97550.66;;;-1.45;94.07
57232;BME280;43488;46.934;8.276;2022-12-18T06:33:38;97555.91;;;-1.47;93.95
57232;BME280;43488;46.934;8.276;2022-12-18T06:36:12;97550.38;;;-1.53;93.23
57232;BME280;43488;46.934;8.276;2022-12-18T06:38:42;97552.72;;;-1.50;93.36
57232;BME280;43488;46.934;8.276;2022-12-18T06:41:16;97560.91;;;-1.56;93.37
57232;BME280;43488;46.934;8.276;2022-12-18T06:43:44;97557.06;;;-1.51;93.68
57232;BME280;43488;46.934;8.276;2022-12-18T06:46:12;97561.53;;;-1.53;93.33
57232;BME280;43488;46.934;8.276;2022-12-18T06:48:39;97568.34;;;-1.52;92.87
57232;BME280;43488;46.934;8.276;2022-12-18T06:51:07;97572.25;;;-1.46;93.89
57232;BME280;43488;46.934;8.276;2022-12-18T06:53:34;97581.44;;;-1.42;93.55
57232;BME280;43488;46.934;8.276;2022-12-18T06:56:04;97595.28;;;-1.56;94.27
57232;BME280;43488;46.934;8.276;2022-12-18T06:58:33;97592.22;;;-1.61;95.39
57232;BME280;43488;46.934;8.276;2022-12-18T07:01:07;97592.81;;;-1.57;94.69
57232;BME280;43488;46.934;8.276;2022-12-18T07:03:36;97594.28;;;-1.53;94.84
57232;BME280;43488;46.934;8.276;2022-12-18T07:06:05;97600.16;;;-1.51;95.46
57232;BME280;43488;46.934;8.276;2022-12-18T07:08:33;97600.97;;;-1.51;94.98
57232;BME280;43488;46.934;8.276;2022-12-18T07:11:04;97610.78;;;-1.56;95.25
57232;BME280;43488;46.934;8.276;2022-12-18T07:13:32;97612.94;;;-1.50;94.90
57232;BME280;43488;46.934;8.276;2022-12-18T07:16:11;97617.81;;;-1.45;94.22
57232;BME280;43488;46.934;8.276;2022-12-18T07:18:39;97623.91;;;-1.46;93.63
57232;BME280;43488;46.934;8.276;2022-12-18T07:21:10;97627.41;;;-1.47;93.99
57232;BME280;43488;46.934;8.276;2022-12-18T07:23:38;97627.63;;;-1.50;94.18
57232;BME280;43488;46.934;8.276;2022-12-18T07:26:11;97633.31;;;-1.58;94.49
57232;BME280;43488;46.934;8.276;2022-12-18T07:28:41;97640.66;;;-1.52;94.49
57232;BME280;43488;46.934;8.276;2022-12-18T07:31:16;97638.28;;;-1.55;94.40
57232;BME280;43488;46.934;8.276;2022-12-18T07:33:44;97647.47;;;-1.51;93.91
57232;BME280;43488;46.934;8.276;2022-12-18T07:36:12;97651.91;;;-1.53;93.85
57232;BME280;43488;46.934;8.276;2022-12-18T07:38:40;97655.13;;;-1.62;93.18
57232;BME280;43488;46.934;8.276;2022-12-18T07:41:12;97654.06;;;-1.59;93.13
57232;BME280;43488;46.934;8.276;2022-12-18T07:43:41;97657.38;;;-1.57;93.26
57232;BME280;43488;46.934;8.276;2022-12-18T07:46:09;97654.91;;;-1.59;93.27
57232;BME280;43488;46.934;8.276;2022-12-18T07:48:37;97661.81;;;-1.59;93.43
57232;BME280;43488;46.934;8.276;2022-12-18T07:51:06;97658.63;;;-1.63;93.43
57232;BME280;43488;46.934;8.276;2022-12-18T07:53:35;97667.59;;;-1.56;93.67
57232;BME280;43488;46.934;8.276;2022-12-18T07:56:06;97670.09;;;-1.54;93.95
57232;BME280;43488;46.934;8.276;2022-12-18T07:58:35;97669.78;;;-1.50;93.84
57232;BME280;43488;46.934;8.276;2022-12-18T08:01:08;97674.13;;;-1.50;93.16
57232;BME280;43488;46.934;8.276;2022-12-18T08:03:38;97677.09;;;-1.56;92.82
57232;BME280;43488;46.934;8.276;2022-12-18T08:06:08;97677.09;;;-1.56;93.08
57232;BME280;43488;46.934;8.276;2022-12-18T08:08:37;97682.38;;;-1.58;93.68
57232;BME280;43488;46.934;8.276;2022-12-18T08:11:04;97675.06;;;-1.51;94.08
57232;BME280;43488;46.934;8.276;2022-12-18T08:13:32;97683.84;;;-1.54;94.20
57232;BME280;43488;46.934;8.276;2022-12-18T08:16:05;97687.84;;;-1.50;94.97
57232;BME280;43488;46.934;8.276;2022-12-18T08:18:37;97684.44;;;-1.50;94.76
57232;BME280;43488;46.934;8.276;2022-12-18T08:21:16;97688.91;;;-1.52;94.10
57232;BME280;43488;46.934;8.276;2022-12-18T08:23:44;97684.97;;;-1.58;94.18
57232;BME280;43488;46.934;8.276;2022-12-18T08:26:12;97689.50;;;-1.61;94.04
57232;BME280;43488;46.934;8.276;2022-12-18T08:28:40;97691.16;;;-1.60;93.57
57232;BME280;43488;46.934;8.276;2022-12-18T08:31:08;97698.91;;;-1.60;93.44
57232;BME280;43488;46.934;8.276;2022-12-18T08:33:36;97687.88;;;-1.62;93.42
57232;BME280;43488;46.934;8.276;2022-12-18T08:36:05;97699.63;;;-1.58;93.58
57232;BME280;43488;46.934;8.276;2022-12-18T08:38:33;97695.41;;;-1.59;93.84
57232;BME280;43488;46.934;8.276;2022-12-18T08:41:03;97699.84;;;-1.61;94.90
57232;BME280;43488;46.934;8.276;2022-12-18T08:43:31;97703.47;;;-1.64;95.10
57232;BME280;43488;46.934;8.276;2022-12-18T08:46:19;97700.97;;;-1.65;94.85
57232;BME280;43488;46.934;8.276;2022-12-18T08:48:47;97697.25;;;-1.61;95.23
57232;BME280;43488;46.934;8.276;2022-12-18T08:51:16;97696.72;;;-1.66;95.28
57232;BME280;43488;46.934;8.276;2022-12-18T08:53:44;97698.91;;;-1.60;95.30
57232;BME280;43488;46.934;8.276;2022-12-18T08:56:13;97693.41;;;-1.56;95.46
57232;BME280;43488;46.934;8.276;2022-12-18T08:58:42;97687.25;;;-1.53;95.03
57232;BME280;43488;46.934;8.276;2022-12-18T09:01:11;97679.00;;;-1.46;94.61
57232;BME280;43488;46.934;8.276;2022-12-18T09:03:39;97686.94;;;-1.36;94.21
57232;BME280;43488;46.934;8.276;2022-12-18T09:06:07;97683.00;;;-1.41;93.72
57232;BME280;43488;46.934;8.276;2022-12-18T09:08:35;97684.88;;;-1.44;93.32
57232;BME280;43488;46.934;8.276;2022-12-18T09:11:04;97680.31;;;-1.40;94.11
57232;BME280;43488;46.934;8.276;2022-12-18T09:13:31;97679.69;;;-1.44;94.02
57232;BME280;43488;46.934;8.276;2022-12-18T09:15:58;97671.72;;;-1.40;93.20
57232;BME280;43488;46.934;8.276;2022-12-18T09:18:25;97673.47;;;-1.28;95.44
57232;BME280;43488;46.934;8.276;2022-12-18T09:20:53;97666.25;;;-1.23;94.22
57232;BME280;43488;46.934;8.276;2022-12-18T09:23:21;97662.63;;;-1.21;92.77
57232;BME280;43488;46.934;8.276;2022-12-18T09:25:48;97659.31;;;-1.23;92.22
57232;BME280;43488;46.934;8.276;2022-12-18T09:28:18;97661.50;;;-1.17;92.33
57232;BME280;43488;46.934;8.276;2022-12-18T09:30:48;97656.81;;;-1.11;91.17
57232;BME280;43488;46.934;8.276;2022-12-18T09:33:17;97656.09;;;-1.13;91.00
57232;BME280;43488;46.934;8.276;2022-12-18T09:35:45;97665.00;;;-1.18;90.84
57232;BME280;43488;46.934;8.276;2022-12-18T09:38:16;97654.44;;;-1.15;90.79
57232;BME280;43488;46.934;8.276;2022-12-18T09:40:52;97656.50;;;-1.07;90.99
57232;BME280;43488;46.934;8.276;2022-12-18T09:43:30;97660.63;;;-1.04;90.40
57232;BME280;43488;46.934;8.276;2022-12-18T09:46:06;97644.19;;;-1.03;90.67
57232;BME280;43488;46.934;8.276;2022-12-18T09:48:46;97646.69;;;-1.15;92.36
57232;BME280;43488;46.934;8.276;2022-12-18T09:51:28;97651.16;;;-1.17;90.92
57232;BME280;43488;46.934;8.276;2022-12-18T09:54:07;97648.34;;;-1.13;91.69
57232;BME280;43488;46.934;8.276;2022-12-18T09:56:42;97650.41;;;-1.06;91.43
57232;BME280;43488;46.934;8.276;2022-12-18T09:59:35;97640.66;;;-1.02;91.31
57232;BME280;43488;46.934;8.276;2022-12-18T10:02:22;97640.25;;;-0.96;92.05
57232;BME280;43488;46.934;8.276;2022-12-18T10:05:16;97645.47;;;-0.85;90.38
57232;BME280;43488;46.934;8.276;2022-12-18T10:07:53;97639.16;;;-0.81;89.87
57232;BME280;43488;46.934;8.276;2022-12-18T10:16:25;97642.34;;;-0.77;89.22
57232;BME280;43488;46.934;8.276;2022-12-18T10:19:21;97650.88;;;-0.88;89.02
57232;BME280;43488;46.934;8.276;2022-12-18T10:22:33;97653.94;;;-0.83;89.42
57232;BME280;43488;46.934;8.276;2022-12-18T10:25:28;97651.16;;;-0.80;90.06
57232;BME280;43488;46.934;8.276;2022-12-18T10:28:12;97653.41;;;-0.75;89.54
57232;BME280;43488;46.934;8.276;2022-12-18T10:30:41;97663.19;;;-0.68;89.49
57232;BME280;43488;46.934;8.276;2022-12-18T10:33:19;97662.50;;;-0.70;89.02
57232;BME280;43488;46.934;8.276;2022-12-18T10:35:52;97658.03;;;-0.68;88.93
57232;BME280;43488;46.934;8.276;2022-12-18T10:38:27;97661.31;;;-0.66;88.39
57232;BME280;43488;46.934;8.276;2022-12-18T10:48:27;97662.59;;;-0.71;88.35
57232;BME280;43488;46.934;8.276;2022-12-18T10:50:55;97677.31;;;-0.72;88.09
57232;BME280;43488;46.934;8.276;2022-12-18T10:53:28;97669.31;;;-0.69;88.09
57232;BME280;43488;46.934;8.276;2022-12-18T10:56:00;97666.50;;;-0.66;88.79
57232;BME280;43488;46.934;8.276;2022-12-18T10:58:33;97671.06;;;-0.69;89.34
57232;BME280;43488;46.934;8.276;2022-12-18T11:03:45;97673.56;;;-0.68;88.14
57232;BME280;43488;46.934;8.276;2022-12-18T11:06:15;97671.66;;;-0.66;87.94
57232;BME280;43488;46.934;8.276;2022-12-18T11:09:04;97677.25;;;-0.59;87.88
57232;BME280;43488;46.934;8.276;2022-12-18T11:11:32;97678.78;;;-0.57;87.15
57232;BME280;43488;46.934;8.276;2022-12-18T11:14:05;97682.31;;;-0.58;87.80
57232;BME280;43488;46.934;8.276;2022-12-18T11:16:42;97682.00;;;-0.53;88.35
57232;BME280;43488;46.934;8.276;2022-12-18T11:19:38;97678.84;;;-0.45;88.32
57232;BME280;43488;46.934;8.276;2022-12-18T11:22:29;97684.63;;;-0.42;87.90
57232;BME280;43488;46.934;8.276;2022-12-18T11:27:40;97673.22;;;-0.39;87.62
57232;BME280;43488;46.934;8.276;2022-12-18T11:30:22;97674.03;;;-0.39;87.75
57232;BME280;43488;46.934;8.276;2022-12-18T11:35:45;97663.88;;;-0.53;88.00
57232;BME280;43488;46.934;8.276;2022-12-18T11:38:21;97658.81;;;-0.54;88.79
57232;BME280;43488;46.934;8.276;2022-12-18T11:41:24;97649.91;;;-0.50;89.12
57232;BME280;43488;46.934;8.276;2022-12-18T11:44:29;97649.78;;;-0.49;88.74
57232;BME280;43488;46.934;8.276;2022-12-18T11:49:56;97641.44;;;-0.52;89.25
57232;BME280;43488;46.934;8.276;2022-12-18T11:52:40;97646.38;;;-0.49;89.56
57232;BME280;43488;46.934;8.276;2022-12-18T11:55:13;97636.13;;;-0.51;90.35
57232;BME280;43488;46.934;8.276;2022-12-18T12:01:29;97631.06;;;-0.52;90.02
57232;BME280;43488;46.934;8.276;2022-12-18T12:10:10;97630.38;;;-0.54;90.93
57232;BME280;43488;46.934;8.276;2022-12-18T12:16:01;97623.78;;;-0.47;91.00
57232;BME280;43488;46.934;8.276;2022-12-18T12:19:36;97623.34;;;-0.41;90.97
57232;BME280;43488;46.934;8.276;2022-12-18T12:22:38;97618.50;;;-0.46;91.02
57232;BME280;43488;46.934;8.276;2022-12-18T12:32:00;97611.75;;;-0.36;90.71
57232;BME280;43488;46.934;8.276;2022-12-18T12:40:35;97602.94;;;-0.33;90.93
57232;BME280;43488;46.934;8.276;2022-12-18T12:46:12;97596.94;;;-0.22;90.19
57232;BME280;43488;46.934;8.276;2022-12-18T12:51:38;97597.38;;;-0.40;91.40
57232;BME280;43488;46.934;8.276;2022-12-18T12:54:19;97595.16;;;-0.33;90.91
57232;BME280;43488;46.934;8.276;2022-12-18T12:59:44;97599.28;;;-0.31;90.96
57232;BME280;43488;46.934;8.276;2022-12-18T13:08:11;97585.28;;;-0.28;89.99
57232;BME280;43488;46.934;8.276;2022-12-18T13:10:42;97585.53;;;-0.31;90.63
57232;BME280;43488;46.934;8.276;2022-12-18T13:13:15;97589.16;;;-0.34;90.80
57232;BME280;43488;46.934;8.276;2022-12-18T13:15:43;97585.53;;;-0.31;90.53
57232;BME280;43488;46.934;8.276;2022-12-18T13:18:23;97591.28;;;-0.28;90.35
57232;BME280;43488;46.934;8.276;2022-12-18T13:25:53;97589.06;;;-0.21;90.17
57232;BME280;43488;46.934;8.276;2022-12-18T13:34:25;97579.13;;;-0.38;90.91
57232;BME280;43488;46.934;8.276;2022-12-18T13:36:54;97591.38;;;-0.40;90.59
57232;BME280;43488;46.934;8.276;2022-12-18T13:39:32;97598.16;;;-0.50;91.14
57232;BME280;43488;46.934;8.276;2022-12-18T13:44:41;97596.75;;;-0.54;90.74
57232;BME280;43488;46.934;8.276;2022-12-18T13:47:33;97605.41;;;-0.55;91.96
57232;BME280;43488;46.934;8.276;2022-12-18T13:50:22;97600.63;;;-0.49;92.00
57232;BME280;43488;46.934;8.276;2022-12-18T13:52:51;97608.81;;;-0.55;92.11
57232;BME280;43488;46.934;8.276;2022-12-18T13:55:21;97607.69;;;-0.51;92.57
57232;BME280;43488;46.934;8.276;2022-12-18T13:57:49;97608.13;;;-0.57;92.62
57232;BME280;43488;46.934;8.276;2022-12-18T14:02:50;97617.19;;;-0.51;92.42
57232;BME280;43488;46.934;8.276;2022-12-18T14:05:30;97620.34;;;-0.59;92.13
57232;BME280;43488;46.934;8.276;2022-12-18T14:08:09;97612.94;;;-0.64;92.06
57232;BME280;43488;46.934;8.276;2022-12-18T14:10:43;97623.47;;;-0.67;92.23
57232;BME280;43488;46.934;8.276;2022-12-18T14:13:21;97621.59;;;-0.65;92.47
57232;BME280;43488;46.934;8.276;2022-12-18T14:15:50;97629.28;;;-0.63;92.55
57232;BME280;43488;46.934;8.276;2022-12-18T14:18:24;97630.53;;;-0.69;92.70
57232;BME280;43488;46.934;8.276;2022-12-18T14:20:58;97634.28;;;-0.73;92.30
57232;BME280;43488;46.934;8.276;2022-12-18T14:26:25;97634.59;;;-0.77;93.27
57232;BME280;43488;46.934;8.276;2022-12-18T14:31:44;97647.69;;;-0.68;93.29
57232;BME280;43488;46.934;8.276;2022-12-18T14:34:18;97642.50;;;-0.68;92.93
57232;BME280;43488;46.934;8.276;2022-12-18T14:36:53;97634.75;;;-0.68;93.28
57232;BME280;43488;46.934;8.276;2022-12-18T14:39:22;97633.94;;;-0.68;93.10
57232;BME280;43488;46.934;8.276;2022-12-18T14:41:52;97630.00;;;-0.74;93.72
57232;BME280;43488;46.934;8.276;2022-12-18T14:44:20;97636.25;;;-0.76;93.12
57232;BME280;43488;46.934;8.276;2022-12-18T14:46:49;97636.00;;;-0.73;93.17
57232;BME280;43488;46.934;8.276;2022-12-18T14:49:33;97631.19;;;-0.78;92.98
57232;BME280;43488;46.934;8.276;2022-12-18T14:52:02;97626.44;;;-0.84;94.04
57232;BME280;43488;46.934;8.276;2022-12-18T14:54:32;97621.25;;;-0.84;94.28
57232;BME280;43488;46.934;8.276;2022-12-18T14:57:25;97618.47;;;-0.81;93.91
57232;BME280;43488;46.934;8.276;2022-12-18T15:00:06;97613.44;;;-0.95;94.40
57232;BME280;43488;46.934;8.276;2022-12-18T15:02:35;97605.91;;;-0.98;94.75
57232;BME280;43488;46.934;8.276;2022-12-18T15:05:15;97603.34;;;-0.98;95.81
57232;BME280;43488;46.934;8.276;2022-12-18T15:07:49;97600.03;;;-1.00;95.43
57232;BME280;43488;46.934;8.276;2022-12-18T15:10:25;97601.56;;;-0.98;96.09
57232;BME280;43488;46.934;8.276;2022-12-18T15:23:34;97590.56;;;-1.12;96.19
57232;BME280;43488;46.934;8.276;2022-12-18T15:26:05;97579.91;;;-1.08;98.12
57232;BME280;43488;46.934;8.276;2022-12-18T15:28:54;97581.88;;;-1.11;97.92
57232;BME280;43488;46.934;8.276;2022-12-18T15:31:32;97594.91;;;-1.13;97.19
57232;BME280;43488;46.934;8.276;2022-12-18T15:36:37;97575.69;;;-1.22;97.79
57232;BME280;43488;46.934;8.276;2022-12-18T15:39:05;97586.25;;;-1.25;97.54